Time;durP1;ratioP1;P1;durP2;ratioP2;P2;SDS_P1;SDS_P2;PMS_P1;PMS_P2;Temp;Humidity;BMP_temperature;BMP_pressure;BME280_temperature;BME280_humidity;BME280_pressure;Samples;Min_cycle;Max_cycle;Signal;HPM_P1;HPM_P2
2023/01/18 00:01:09;;;;;;;22.80;11.10;;;;;;;4.08;100.00;96385.53;107768;1275;26515;-75
2023/01/18 00:03:37;;;;;;;24.10;11.70;;;;;;;4.09;100.00;96390.05;107709;1275;24240;-75
2023/01/18 00:06:06;;;;;;;27.80;13.50;;;;;;;4.11;100.00;96383.58;107581;1275;25374;-75
2023/01/18 00:08:34;;;;;;;24.20;11.50;;;;;;;4.11;100.00;96374.24;107638;1275;22472;-75
2023/01/18 00:11:06;;;;;;;27.90;11.10;;;;;;;4.12;100.00;96372.21;107645;1275;22780;-75
2023/01/18 00:13:33;;;;;;;25.00;11.90;;;;;;;4.13;100.00;96370.80;107598;1275;22556;-75
2023/01/18 00:16:05;;;;;;;27.40;12.20;;;;;;;4.14;100.00;96367.17;107620;1275;24254;-76
2023/01/18 00:18:34;;;;;;;25.30;12.90;;;;;;;4.16;100.00;96361.48;107704;1275;22529;-76
2023/01/18 00:21:03;;;;;;;25.40;12.10;;;;;;;4.17;100.00;96360.02;107533;1275;22756;-75
2023/01/18 00:23:30;;;;;;;24.60;11.90;;;;;;;4.18;100.00;96359.16;107689;1275;24211;-75
2023/01/18 00:26:01;;;;;;;26.20;12.00;;;;;;;4.19;100.00;96359.06;107641;1275;25313;-75
2023/01/18 00:28:28;;;;;;;21.60;11.10;;;;;;;4.19;100.00;96354.16;107756;1275;22767;-75
2023/01/18 00:30:56;;;;;;;23.60;10.90;;;;;;;4.19;100.00;96356.30;107714;1275;22524;-75
2023/01/18 00:33:23;;;;;;;23.90;11.00;;;;;;;4.21;100.00;96348.92;107740;1275;22523;-74
2023/01/18 00:35:58;;;;;;;24.60;12.20;;;;;;;4.24;100.00;96349.52;107747;1275;22722;-76
2023/01/18 00:38:25;;;;;;;27.10;12.90;;;;;;;4.25;100.00;96336.79;107668;1275;25246;-75
2023/01/18 00:40:53;;;;;;;27.10;12.00;;;;;;;4.25;100.00;96333.38;106886;1275;1004991;-76
2023/01/18 00:43:38;;;;;;;24.80;12.50;;;;;;;4.25;100.00;96334.11;107722;1275;25978;-75
2023/01/18 00:46:07;;;;;;;24.20;11.40;;;;;;;4.26;100.00;96327.89;107594;1275;22538;-78
2023/01/18 00:48:35;;;;;;;25.50;11.60;;;;;;;4.27;100.00;96339.70;107633;1275;25437;-77
2023/01/18 00:51:02;;;;;;;23.90;11.10;;;;;;;4.27;100.00;96328.34;107692;1275;22527;-75
2023/01/18 00:53:29;;;;;;;26.10;12.30;;;;;;;4.28;100.00;96326.27;107661;1275;22483;-75
2023/01/18 00:55:57;;;;;;;26.10;11.70;;;;;;;4.28;100.00;96328.25;107632;1275;22534;-75
2023/01/18 00:58:24;;;;;;;26.50;12.40;;;;;;;4.28;100.00;96327.59;107744;1275;25907;-75
2023/01/18 01:00:52;;;;;;;28.30;12.00;;;;;;;4.29;100.00;96321.48;107704;1275;24218;-75
2023/01/18 01:03:20;;;;;;;25.20;12.50;;;;;;;4.29;100.00;96323.79;107689;1275;24228;-75
2023/01/18 01:08:50;;;;;;;25.70;11.90;;;;;;;4.27;100.00;96316.70;107066;1283;24224;-74
2023/01/18 01:11:17;;;;;;;25.50;12.60;;;;;;;4.27;100.00;96327.48;107614;1276;24859;-75
2023/01/18 01:27:34;;;;;;;24.90;11.30;;;;;;;4.27;100.00;96307.28;107720;1275;22520;-74
2023/01/18 01:30:03;;;;;;;23.80;11.40;;;;;;;4.27;100.00;96315.80;107815;1275;22557;-74
2023/01/18 01:32:30;;;;;;;25.00;10.80;;;;;;;4.27;100.00;96313.27;107821;1275;24265;-76
2023/01/18 01:34:57;;;;;;;25.40;12.40;;;;;;;4.28;100.00;96313.77;107786;1261;22648;-77
2023/01/18 01:37:24;;;;;;;27.40;11.60;;;;;;;4.28;100.00;96314.98;107756;1275;24271;-75
2023/01/18 01:39:52;;;;;;;26.00;13.00;;;;;;;4.28;100.00;96316.50;109955;1275;22547;-75
2023/01/18 01:42:19;;;;;;;29.20;12.90;;;;;;;4.30;100.00;96316.25;109107;1275;22999;-75
2023/01/18 01:44:50;;;;;;;23.30;11.30;;;;;;;4.32;100.00;96310.09;108180;1275;22658;-75
2023/01/18 01:47:18;;;;;;;24.20;12.70;;;;;;;4.33;100.00;96309.42;107699;1275;22810;-75
2023/01/18 01:49:47;;;;;;;23.30;11.80;;;;;;;4.34;100.00;96310.58;107608;1275;22997;-75
2023/01/18 01:52:18;;;;;;;26.20;11.40;;;;;;;4.34;100.00;96305.45;107659;1275;24155;-75
2023/01/18 01:54:53;;;;;;;26.10;12.10;;;;;;;4.35;100.00;96304.13;107666;1275;23701;-75
2023/01/18 01:57:24;;;;;;;25.60;11.10;;;;;;;4.35;100.00;96301.13;107721;1275;24317;-75
2023/01/18 02:00:09;;;;;;;22.50;10.20;;;;;;;4.34;100.00;96297.44;107642;1275;22536;-75
2023/01/18 02:02:40;;;;;;;25.90;12.50;;;;;;;4.34;100.00;96291.55;107744;1275;26509;-76
2023/01/18 02:05:08;;;;;;;21.60;11.40;;;;;;;4.34;100.00;96291.93;107688;1275;23882;-75
2023/01/18 02:07:35;;;;;;;23.60;12.30;;;;;;;4.35;100.00;96291.34;107744;1275;22768;-75
2023/01/18 02:10:04;;;;;;;23.70;11.10;;;;;;;4.35;100.00;96285.41;107718;1275;23765;-75
2023/01/18 02:12:31;;;;;;;24.00;12.10;;;;;;;4.36;100.00;96277.91;107719;1275;22542;-75
2023/01/18 02:14:58;;;;;;;24.30;11.70;;;;;;;4.38;100.00;96277.16;107742;1275;24212;-75
2023/01/18 02:17:48;;;;;;;25.70;12.00;;;;;;;4.38;100.00;96273.89;107690;1275;22482;-76
2023/01/18 02:20:18;;;;;;;23.50;10.90;;;;;;;4.38;100.00;96267.80;107687;1275;22574;-77
2023/01/18 02:23:13;;;;;;;25.30;12.10;;;;;;;4.39;100.00;96276.53;107731;1275;22474;-75
2023/01/18 02:25:50;;;;;;;20.50;10.70;;;;;;;4.38;100.00;96270.89;107570;1275;25306;-75
2023/01/18 02:28:41;;;;;;;21.20;10.40;;;;;;;4.38;100.00;96274.31;107580;1275;22715;-75
2023/01/18 02:31:09;;;;;;;23.90;10.70;;;;;;;4.38;100.00;96268.43;107685;1275;22481;-74
2023/01/18 02:33:43;;;;;;;21.80;10.20;;;;;;;4.37;100.00;96273.30;107734;1275;22724;-75
2023/01/18 02:36:32;;;;;;;19.90;9.90;;;;;;;4.37;100.00;96267.81;107736;1275;24222;-75
2023/01/18 02:39:22;;;;;;;21.10;10.90;;;;;;;4.36;100.00;96255.77;107713;1275;22525;-75
2023/01/18 02:47:29;;;;;;;24.20;11.40;;;;;;;4.37;100.00;96244.28;107524;1276;25294;-75
2023/01/18 02:49:56;;;;;;;22.70;10.70;;;;;;;4.37;100.00;96252.96;107680;1275;24222;-76
2023/01/18 02:52:46;;;;;;;21.90;11.00;;;;;;;4.39;100.00;96256.85;107602;1275;22509;-74
2023/01/18 02:55:23;;;;;;;22.70;11.20;;;;;;;4.39;100.00;96247.38;107546;1275;25616;-75
2023/01/18 02:57:52;;;;;;;22.00;11.20;;;;;;;4.39;100.00;96247.75;107530;1275;22569;-75
2023/01/18 03:00:22;;;;;;;23.30;10.80;;;;;;;4.39;100.00;96253.05;107602;1275;24232;-75
2023/01/18 03:02:49;;;;;;;20.90;10.60;;;;;;;4.39;100.00;96250.75;107453;1275;22564;-75
2023/01/18 03:05:17;;;;;;;22.00;10.80;;;;;;;4.40;100.00;96254.29;107402;1275;207014;-76
2023/01/18 03:07:49;;;;;;;22.60;10.90;;;;;;;4.39;100.00;96254.70;107431;1276;24279;-74
2023/01/18 03:10:17;;;;;;;25.10;13.10;;;;;;;4.40;100.00;96254.46;107712;1275;25252;-76
2023/01/18 03:13:04;;;;;;;20.90;10.00;;;;;;;4.40;100.00;96252.48;107603;1275;22476;-75
2023/01/18 03:15:39;;;;;;;21.70;10.50;;;;;;;4.40;100.00;96245.48;107641;1275;22557;-76
2023/01/18 03:18:10;;;;;;;23.10;11.20;;;;;;;4.40;100.00;96254.62;107446;1275;22685;-76
2023/01/18 03:20:40;;;;;;;21.80;11.40;;;;;;;4.41;100.00;96254.48;107436;1275;22530;-76
2023/01/18 03:25:59;;;;;;;22.40;12.00;;;;;;;4.41;100.00;96245.02;107665;1275;22520;-76
2023/01/18 03:34:35;;;;;;;21.90;10.20;;;;;;;4.42;100.00;96231.27;107689;1275;25436;-74
2023/01/18 03:37:04;;;;;;;23.80;11.80;;;;;;;4.45;100.00;96246.62;107551;1275;24170;-75
2023/01/18 03:39:46;;;;;;;23.60;11.40;;;;;;;4.45;100.00;96248.31;107440;1276;24179;-76
2023/01/18 03:42:17;;;;;;;21.30;9.60;;;;;;;4.47;100.00;96239.23;107505;1275;24285;-75
2023/01/18 03:45:28;;;;;;;21.40;10.30;;;;;;;4.49;100.00;96243.98;107337;1275;22549;-75
2023/01/18 03:47:55;;;;;;;22.80;11.10;;;;;;;4.51;100.00;96233.27;107432;1268;22527;-75
2023/01/18 03:50:31;;;;;;;22.70;11.10;;;;;;;4.53;100.00;96244.79;107512;1275;24212;-75
2023/01/18 03:52:59;;;;;;;23.80;10.50;;;;;;;4.54;100.00;96236.41;107204;1275;22665;-75
2023/01/18 03:55:47;;;;;;;21.70;10.00;;;;;;;4.56;100.00;96238.61;107284;1276;26559;-75
2023/01/18 03:58:18;;;;;;;23.70;11.20;;;;;;;4.56;100.00;96229.51;107354;1275;22536;-75
2023/01/18 04:00:45;;;;;;;21.80;11.00;;;;;;;4.57;100.00;96238.36;107226;1275;22527;-76
2023/01/18 04:03:13;;;;;;;18.90;9.80;;;;;;;4.58;100.00;96236.79;107512;1275;22656;-75
2023/01/18 04:05:40;;;;;;;23.50;11.10;;;;;;;4.58;100.00;96235.23;107252;1275;25433;-74
2023/01/18 04:08:07;;;;;;;19.90;10.10;;;;;;;4.56;100.00;96230.67;107284;1275;24329;-75
2023/01/18 04:10:35;;;;;;;22.90;10.50;;;;;;;4.54;100.00;96230.15;107548;1275;24237;-74
2023/01/18 04:13:02;;;;;;;22.40;10.40;;;;;;;4.53;100.00;96234.40;110041;1275;22614;-75
2023/01/18 04:15:29;;;;;;;24.50;10.90;;;;;;;4.54;100.00;96229.38;109343;1275;24225;-75
2023/01/18 04:17:57;;;;;;;24.30;10.30;;;;;;;4.55;100.00;96230.92;108261;1275;24296;-76
2023/01/18 04:20:24;;;;;;;22.00;10.10;;;;;;;4.55;100.00;96236.43;107623;1275;22562;-75
2023/01/18 04:22:52;;;;;;;18.60;9.70;;;;;;;4.56;100.00;96234.54;106674;1275;1002870;-75
2023/01/18 04:25:19;;;;;;;22.30;10.50;;;;;;;4.58;100.00;96233.45;107415;1275;22746;-76
2023/01/18 04:27:46;;;;;;;21.50;10.50;;;;;;;4.58;100.00;96234.67;107419;1275;23036;-74
2023/01/18 04:30:14;;;;;;;23.20;10.80;;;;;;;4.58;100.00;96236.66;107383;1275;22523;-75
2023/01/18 04:32:44;;;;;;;20.00;10.00;;;;;;;4.57;100.00;96233.33;106628;1275;1005771;-75
2023/01/18 04:35:12;;;;;;;24.50;10.30;;;;;;;4.58;100.00;96232.75;107368;1253;22836;-74
2023/01/18 04:37:40;;;;;;;23.10;10.30;;;;;;;4.58;100.00;96238.05;107174;1275;22776;-74
2023/01/18 04:40:08;;;;;;;21.60;9.80;;;;;;;4.58;100.00;96240.04;107349;1275;22542;-75
2023/01/18 04:42:35;;;;;;;24.40;11.50;;;;;;;4.57;100.00;96238.73;107587;1275;22530;-75
2023/01/18 04:45:02;;;;;;;25.00;11.70;;;;;;;4.56;100.00;96238.80;107501;1275;22523;-75
2023/01/18 04:47:29;;;;;;;24.80;10.30;;;;;;;4.57;100.00;96240.99;107626;1275;24189;-76
2023/01/18 04:49:57;;;;;;;23.10;11.50;;;;;;;4.59;100.00;96240.82;107411;1276;22534;-76
2023/01/18 04:52:25;;;;;;;21.20;10.10;;;;;;;4.59;100.00;96242.70;107625;1275;24205;-75
2023/01/18 04:54:53;;;;;;;21.90;10.90;;;;;;;4.60;100.00;96238.33;107407;1275;25968;-76
2023/01/18 04:57:20;;;;;;;22.80;11.10;;;;;;;4.62;100.00;96238.50;107385;1275;25250;-75
2023/01/18 04:59:47;;;;;;;21.60;10.20;;;;;;;4.63;100.00;96238.85;107476;1275;24219;-75
2023/01/18 05:02:14;;;;;;;20.50;9.70;;;;;;;4.64;100.00;96235.92;107705;1275;24218;-75
2023/01/18 05:04:42;;;;;;;22.20;10.70;;;;;;;4.63;100.00;96237.88;107593;1275;23698;-75
2023/01/18 05:07:10;;;;;;;23.70;12.30;;;;;;;4.62;100.00;96239.27;107449;1275;22527;-75
2023/01/18 05:09:38;;;;;;;22.00;10.90;;;;;;;4.61;100.00;96244.14;107508;1275;22546;-74
2023/01/18 05:12:05;;;;;;;23.60;10.80;;;;;;;4.61;100.00;96246.92;107725;1275;25287;-75
2023/01/18 05:14:32;;;;;;;23.00;10.90;;;;;;;4.61;100.00;96244.57;107713;1275;22513;-76
2023/01/18 05:17:00;;;;;;;22.00;10.40;;;;;;;4.61;100.00;96249.17;107728;1275;23246;-76
2023/01/18 05:19:29;;;;;;;21.30;9.90;;;;;;;4.60;100.00;96245.28;107534;1275;22538;-75
2023/01/18 05:21:56;;;;;;;22.90;10.00;;;;;;;4.59;100.00;96251.05;107797;1275;22530;-75
2023/01/18 05:24:24;;;;;;;26.30;11.90;;;;;;;4.60;100.00;96252.98;106932;1275;1003100;-75
2023/01/18 05:26:51;;;;;;;21.00;10.10;;;;;;;4.59;100.00;96253.86;107604;1275;24041;-75
2023/01/18 05:29:18;;;;;;;19.10;9.70;;;;;;;4.57;100.00;96257.41;107507;1275;22568;-76
2023/01/18 05:31:45;;;;;;;22.80;10.60;;;;;;;4.56;100.00;96256.36;107682;1275;24327;-75
2023/01/18 05:34:13;;;;;;;22.80;10.40;;;;;;;4.54;100.00;96258.15;107520;1275;22554;-76
2023/01/18 05:36:40;;;;;;;18.80;8.90;;;;;;;4.53;100.00;96265.11;106903;1275;1003095;-75
2023/01/18 05:39:08;;;;;;;20.60;9.60;;;;;;;4.51;100.00;96262.71;107570;1275;25335;-76
2023/01/18 05:41:35;;;;;;;22.90;10.90;;;;;;;4.49;100.00;96265.95;107541;1275;22529;-75
2023/01/18 05:44:03;;;;;;;22.30;10.20;;;;;;;4.47;100.00;96276.98;107573;1275;24227;-75
2023/01/18 05:46:30;;;;;;;20.60;10.10;;;;;;;4.45;100.00;96279.42;107420;1275;22565;-77
2023/01/18 05:48:57;;;;;;;21.80;11.10;;;;;;;4.44;100.00;96291.33;107592;1275;22529;-75
2023/01/18 05:51:25;;;;;;;25.90;13.70;;;;;;;4.43;100.00;96291.47;107750;1275;24813;-75
2023/01/18 05:53:52;;;;;;;21.50;10.90;;;;;;;4.41;100.00;96295.47;107682;1275;22557;-75
2023/01/18 05:56:20;;;;;;;24.80;12.40;;;;;;;4.40;100.00;96305.61;107493;1275;22764;-76
2023/01/18 05:58:47;;;;;;;22.80;11.60;;;;;;;4.38;100.00;96311.51;106941;1275;1003264;-75
2023/01/18 06:01:14;;;;;;;22.40;10.70;;;;;;;4.37;100.00;96310.20;107657;1275;24312;-75
2023/01/18 06:03:41;;;;;;;22.80;10.80;;;;;;;4.37;100.00;96306.46;107550;1275;22531;-75
2023/01/18 06:06:09;;;;;;;20.40;10.00;;;;;;;4.38;100.00;96310.15;107770;1275;25534;-75
2023/01/18 06:08:36;;;;;;;24.20;10.20;;;;;;;4.39;100.00;96312.68;107708;1275;22527;-75
2023/01/18 06:11:05;;;;;;;20.40;10.20;;;;;;;4.39;100.00;96318.95;107736;1275;22730;-74
2023/01/18 06:13:32;;;;;;;23.90;10.90;;;;;;;4.40;100.00;96324.25;107442;1275;25444;-74
2023/01/18 06:16:00;;;;;;;23.10;11.60;;;;;;;4.42;100.00;96327.44;107341;1275;22529;-75
2023/01/18 06:18:30;;;;;;;20.10;10.40;;;;;;;4.43;100.00;96337.59;107247;1275;25329;-75
2023/01/18 06:20:59;;;;;;;23.50;11.90;;;;;;;4.45;100.00;96333.41;107212;1275;22524;-74
2023/01/18 06:23:29;;;;;;;22.60;10.60;;;;;;;4.46;100.00;96335.87;107721;1275;25243;-74
2023/01/18 06:25:56;;;;;;;19.80;10.30;;;;;;;4.48;100.00;96336.02;107403;1275;24225;-76
2023/01/18 06:28:23;;;;;;;20.50;9.60;;;;;;;4.48;100.00;96337.90;107328;1275;24193;-74
2023/01/18 06:30:52;;;;;;;25.20;11.40;;;;;;;4.48;100.00;96343.88;107326;1275;22533;-74
2023/01/18 06:47:17;;;;;;;23.50;12.10;;;;;;;4.76;100.00;96135.73;104793;1295;557435;-74
2023/01/18 06:49:46;;;;;;;19.10;10.30;;;;;;;4.89;100.00;95999.67;105853;1286;169589;-76
2023/01/18 06:52:14;;;;;;;22.70;11.00;;;;;;;4.90;100.00;96072.35;105923;1286;24051;-74
2023/01/18 06:54:43;;;;;;;22.40;11.00;;;;;;;4.88;100.00;96120.98;106271;1286;25366;-75
2023/01/18 06:57:11;;;;;;;20.40;10.10;;;;;;;4.87;100.00;96165.59;106208;1286;23874;-75
2023/01/18 06:59:39;;;;;;;22.30;11.10;;;;;;;4.86;100.00;96211.86;106196;1286;25395;-74
2023/01/18 07:02:06;;;;;;;23.40;11.00;;;;;;;4.84;100.00;96245.49;106162;1279;25542;-74
2023/01/18 07:04:40;;;;;;;22.80;11.20;;;;;;;4.83;100.00;96268.80;106103;1287;22543;-78
2023/01/18 07:07:07;;;;;;;21.30;10.80;;;;;;;4.81;100.00;96295.10;106312;1287;22621;-76
2023/01/18 07:09:34;;;;;;;19.50;9.60;;;;;;;4.80;100.00;96321.02;106317;1284;25451;-75
2023/01/18 07:12:01;;;;;;;23.30;11.10;;;;;;;4.79;100.00;96346.80;106068;1287;22748;-74
2023/01/18 07:14:29;;;;;;;22.30;10.80;;;;;;;4.79;100.00;96361.92;106373;1285;22550;-75
2023/01/18 07:16:56;;;;;;;23.10;11.30;;;;;;;4.81;100.00;96377.55;105971;1285;22542;-72
2023/01/18 07:19:23;;;;;;;22.70;10.90;;;;;;;4.83;100.00;96386.41;106193;1280;24234;-75
2023/01/18 07:21:52;;;;;;;22.10;10.50;;;;;;;4.85;100.00;96396.48;106095;1272;25440;-77
2023/01/18 07:24:20;;;;;;;22.70;11.30;;;;;;;4.86;100.00;96413.07;106315;1279;22560;-75
2023/01/18 07:26:47;;;;;;;23.60;10.80;;;;;;;4.89;100.00;96433.70;105993;1287;25411;-75
2023/01/18 07:29:15;;;;;;;20.90;10.90;;;;;;;4.92;100.00;96440.05;106273;1287;25394;-74
2023/01/18 07:31:43;;;;;;;21.10;11.30;;;;;;;4.94;100.00;96452.97;106339;1280;22827;-69
2023/01/18 07:34:12;;;;;;;20.80;10.10;;;;;;;4.96;100.00;96464.48;106153;1285;23900;-68
2023/01/18 07:36:40;;;;;;;21.70;9.90;;;;;;;4.97;100.00;96471.48;106266;1287;24450;-67
2023/01/18 07:39:08;;;;;;;20.30;10.10;;;;;;;4.99;100.00;96480.42;106201;1282;23992;-68
2023/01/18 07:41:36;;;;;;;21.60;10.60;;;;;;;5.00;100.00;96494.92;106111;1280;22602;-68
2023/01/18 07:44:04;;;;;;;18.80;9.70;;;;;;;5.01;100.00;96513.78;106133;1280;23012;-68
2023/01/18 07:46:31;;;;;;;23.00;10.70;;;;;;;5.01;100.00;96526.02;106171;1279;24342;-68
2023/01/18 07:49:01;;;;;;;21.90;11.40;;;;;;;5.04;100.00;96540.12;106033;1287;22535;-69
2023/01/18 07:51:29;;;;;;;20.80;10.50;;;;;;;5.06;100.00;96554.80;105988;1282;22550;-69
2023/01/18 07:53:57;;;;;;;21.10;11.10;;;;;;;5.08;100.00;96568.45;106200;1283;22559;-68
2023/01/18 07:56:26;;;;;;;23.90;11.20;;;;;;;5.09;100.00;96580.89;106073;1281;23902;-68
2023/01/18 07:58:53;;;;;;;23.50;11.00;;;;;;;5.10;100.00;96596.13;106142;1281;22574;-68
2023/01/18 08:01:56;;;;;;;23.40;11.00;;;;;;;5.09;100.00;96613.34;105930;1283;22544;-68
2023/01/18 08:04:34;;;;;;;20.50;9.80;;;;;;;5.11;100.00;96612.64;105229;1287;1003438;-69
2023/01/18 08:07:02;;;;;;;21.70;9.70;;;;;;;5.10;100.00;96643.67;105966;1279;25522;-67
2023/01/18 08:09:32;;;;;;;22.20;10.30;;;;;;;5.09;100.00;96669.58;105968;1267;25664;-68
2023/01/18 08:12:00;;;;;;;21.00;10.50;;;;;;;5.09;100.00;96685.29;105879;1282;22622;-67
2023/01/18 08:14:27;;;;;;;20.70;10.30;;;;;;;5.11;100.00;96707.02;105940;1287;22533;-68
2023/01/18 08:16:55;;;;;;;20.60;10.20;;;;;;;5.12;100.00;96726.92;106211;1287;22544;-68
2023/01/18 08:19:22;;;;;;;22.70;9.60;;;;;;;5.11;100.00;96757.36;105968;1282;24479;-70
2023/01/18 08:21:50;;;;;;;22.10;11.00;;;;;;;5.11;100.00;96778.42;106112;1279;23926;-68
2023/01/18 08:24:18;;;;;;;22.30;10.50;;;;;;;5.11;100.00;96793.64;106131;1287;24502;-68
2023/01/18 08:26:45;;;;;;;24.30;10.20;;;;;;;5.11;100.00;96811.67;106099;1287;24486;-68
2023/01/18 08:29:12;;;;;;;22.60;10.70;;;;;;;5.11;100.00;96827.09;105886;1285;25274;-67
2023/01/18 08:31:43;;;;;;;20.70;9.90;;;;;;;5.10;100.00;96846.01;106191;1282;24302;-70
2023/01/18 08:34:11;;;;;;;19.40;9.70;;;;;;;5.11;100.00;96864.83;106094;1285;24433;-69
2023/01/18 08:36:38;;;;;;;19.60;9.10;;;;;;;5.12;100.00;96879.09;106122;1279;22529;-69
2023/01/18 08:39:07;;;;;;;21.00;9.60;;;;;;;5.10;100.00;96900.52;106170;1282;22535;-68
2023/01/18 08:41:35;;;;;;;19.40;10.60;;;;;;;5.09;100.00;96929.82;106150;1281;25270;-69
2023/01/18 08:44:02;;;;;;;20.50;9.70;;;;;;;5.06;100.00;96958.16;106168;1279;25369;-72
2023/01/18 08:46:30;;;;;;;26.60;11.90;;;;;;;5.05;100.00;96984.31;106164;1280;22556;-72
2023/01/18 08:49:00;;;;;;;23.70;11.30;;;;;;;5.04;100.00;97005.81;105556;1279;1003512;-69
2023/01/18 08:51:27;;;;;;;20.80;10.80;;;;;;;5.04;100.00;97023.73;106265;1282;24273;-74
2023/01/18 08:53:55;;;;;;;23.50;10.30;;;;;;;5.05;100.00;97048.54;106165;1282;22544;-70
2023/01/18 08:56:23;;;;;;;23.40;11.00;;;;;;;5.11;100.00;97059.16;106213;1287;25530;-71
2023/01/18 08:58:52;;;;;;;22.90;10.40;;;;;;;5.21;100.00;97066.59;106209;1279;22710;-70
2023/01/18 09:01:21;;;;;;;24.00;12.00;;;;;;;5.30;100.00;97073.25;106121;1287;25113;-70
2023/01/18 09:03:53;;;;;;;22.50;10.80;;;;;;;5.36;100.00;97085.92;106224;1281;24334;-71
2023/01/18 09:06:20;;;;;;;24.00;11.00;;;;;;;5.41;100.00;97095.08;106398;1285;23131;-71
2023/01/18 09:08:49;;;;;;;22.30;10.70;;;;;;;5.44;100.00;97108.22;106164;1280;25515;-70
2023/01/18 09:11:18;;;;;;;27.20;11.80;;;;;;;5.46;100.00;97114.52;106275;1282;22543;-70
2023/01/18 09:13:47;;;;;;;23.20;11.20;;;;;;;5.50;100.00;97127.98;106185;1287;24246;-70
2023/01/18 09:16:28;;;;;;;21.40;10.50;;;;;;;5.53;100.00;97135.65;106248;1287;22554;-69
2023/01/18 09:18:57;;;;;;;23.30;11.40;;;;;;;5.56;100.00;97149.05;106549;1282;22624;-70
2023/01/18 09:21:26;;;;;;;21.90;11.00;;;;;;;5.58;100.00;97168.55;107298;1287;23548;-69
2023/01/18 09:23:54;;;;;;;25.40;12.00;;;;;;;5.60;100.00;97181.29;106107;1279;22557;-68
2023/01/18 09:26:21;;;;;;;22.20;10.50;;;;;;;5.61;100.00;97203.65;106165;1282;24379;-69
2023/01/18 09:28:51;;;;;;;26.90;12.00;;;;;;;5.59;100.00;97221.63;106197;1285;22575;-70
2023/01/18 09:31:19;;;;;;;26.00;12.20;;;;;;;5.54;100.00;97241.21;108930;1276;22540;-74
2023/01/18 09:33:47;;;;;;;22.40;10.60;;;;;;;5.48;100.00;97256.14;106536;1275;22963;-72
2023/01/18 09:36:22;;;;;;;21.40;10.60;;;;;;;5.43;100.00;97274.24;106505;1280;24317;-70
2023/01/18 09:38:52;;;;;;;21.60;9.90;;;;;;;5.37;100.00;97285.83;106400;1275;22540;-77
2023/01/18 09:41:31;;;;;;;21.50;10.20;;;;;;;5.30;100.00;97307.67;106424;1276;22532;-71
2023/01/18 09:44:21;;;;;;;23.00;11.30;;;;;;;5.23;100.00;97323.90;106465;1279;22545;-73
2023/01/18 09:46:52;;;;;;;23.10;9.80;;;;;;;5.17;100.00;97339.34;106096;1283;24066;-76
2023/01/18 09:49:37;;;;;;;24.90;11.30;;;;;;;5.12;100.00;97353.14;106207;1281;22545;-68
2023/01/18 09:52:18;;;;;;;20.70;10.20;;;;;;;5.08;100.00;97358.85;106180;1279;22544;-75
2023/01/18 09:54:57;;;;;;;20.80;9.90;;;;;;;5.05;100.00;97361.57;106287;1276;22540;-75
2023/01/18 09:57:50;;;;;;;24.20;10.80;;;;;;;5.03;100.00;97370.36;106376;1276;22541;-74
2023/01/18 10:00:22;;;;;;;21.30;9.40;;;;;;;5.01;100.00;97368.67;106444;1279;23252;-68
2023/01/18 10:02:56;;;;;;;24.50;11.10;;;;;;;4.99;100.00;97378.39;106545;1263;22691;-67
2023/01/18 10:05:28;;;;;;;23.00;10.40;;;;;;;4.97;100.00;97374.76;107608;1276;25259;-68
2023/01/18 10:08:01;;;;;;;22.50;11.60;;;;;;;4.96;100.00;97381.84;106496;1276;22671;-68
2023/01/18 10:10:37;;;;;;;23.50;10.80;;;;;;;4.95;100.00;97376.02;106411;1276;22764;-68
2023/01/18 10:13:46;;;;;;;24.80;10.70;;;;;;;4.95;100.00;97368.11;106540;1282;25590;-74
2023/01/18 10:16:13;;;;;;;23.50;10.40;;;;;;;4.94;100.00;97356.79;106048;1282;22543;-75
2023/01/18 10:18:56;;;;;;;21.20;10.50;;;;;;;4.93;100.00;97363.38;106289;1279;22560;-76
2023/01/18 10:21:50;;;;;;;24.00;11.30;;;;;;;4.92;100.00;97358.39;106230;1280;25438;-67
2023/01/18 10:24:31;;;;;;;;;;;;;;;4.92;100.00;97352.45;106262;1279;24270;-74
2023/01/18 10:27:09;;;;;;;21.60;10.10;;;;;;;4.92;100.00;97354.77;106189;1279;25395;-67
2023/01/18 10:29:56;;;;;;;25.30;11.10;;;;;;;4.93;100.00;97352.95;106256;1276;23881;-76
2023/01/18 10:32:23;;;;;;;22.20;11.10;;;;;;;4.93;100.00;97345.23;106170;1275;25371;-75
2023/01/18 10:34:50;;;;;;;25.40;11.30;;;;;;;4.92;100.00;97340.15;106420;1283;22540;-76
2023/01/18 10:37:37;;;;;;;20.00;11.00;;;;;;;4.93;100.00;97331.52;106236;1260;25479;-75
2023/01/18 10:40:09;;;;;;;23.00;9.90;;;;;;;4.94;100.00;97311.93;107227;1281;25622;-76
2023/01/18 10:42:50;;;;;;;21.60;10.60;;;;;;;4.95;100.00;97310.30;107473;1279;22558;-76
2023/01/18 10:45:28;;;;;;;22.50;10.30;;;;;;;4.98;100.00;97299.33;108016;1269;22543;-70
2023/01/18 10:53:37;;;;;;;21.00;10.40;;;;;;;5.04;100.00;97229.16;103996;1295;1003622;-67
2023/01/18 10:56:08;;;;;;;23.60;11.00;;;;;;;5.04;100.00;97081.34;105337;1291;23886;-73
2023/01/18 10:58:44;;;;;;;24.40;11.10;;;;;;;5.07;100.00;97094.89;105657;1292;22536;-68
2023/01/18 11:01:22;;;;;;;21.00;10.20;;;;;;;5.10;100.00;97097.52;105903;1266;24250;-69
2023/01/18 11:03:55;;;;;;;23.20;10.80;;;;;;;5.12;100.00;97097.08;105898;1281;22658;-72
2023/01/18 11:06:23;;;;;;;22.60;10.20;;;;;;;5.13;100.00;97095.13;102522;1279;5746102;-67
2023/01/18 11:08:50;;;;;;;23.70;11.30;;;;;;;5.14;100.00;97090.10;106787;1273;25370;-70
2023/01/18 11:12:32;;;;;;;24.30;10.80;;;;;;;5.17;100.00;97087.09;106962;1273;26512;-71
2023/01/18 11:14:38;;;;;;;23.50;9.90;;;;;;;5.19;100.00;97064.45;107559;1276;22567;-70
2023/01/18 11:17:16;;;;;;;25.80;12.80;;;;;;;5.21;100.00;97059.42;107038;1279;1002525;-69
2023/01/18 11:19:46;;;;;;;23.10;11.00;;;;;;;5.23;100.00;97052.36;107308;1279;22708;-70
2023/01/18 11:22:15;;;;;;;25.30;10.70;;;;;;;5.25;100.00;97049.60;107201;1279;25258;-70
2023/01/18 11:24:42;;;;;;;26.50;11.10;;;;;;;5.27;100.00;97044.13;107045;1279;25427;-71
2023/01/18 11:27:12;;;;;;;24.20;11.20;;;;;;;5.29;100.00;97038.27;106796;1279;25243;-70
2023/01/18 11:29:41;;;;;;;22.40;10.70;;;;;;;5.31;100.00;97034.41;107158;1279;24186;-66
2023/01/18 11:32:23;;;;;;;20.50;9.70;;;;;;;5.33;100.00;97025.55;107138;1273;22470;-68
2023/01/18 11:34:52;;;;;;;25.70;10.90;;;;;;;5.37;100.00;97015.85;106804;1273;22547;-68
2023/01/18 11:37:28;;;;;;;23.50;10.50;;;;;;;5.38;100.00;97014.23;106750;1278;25920;-68
2023/01/18 11:39:56;;;;;;;22.30;11.20;;;;;;;5.40;100.00;97002.16;106721;1276;24743;-68
2023/01/18 11:42:29;;;;;;;24.10;10.60;;;;;;;5.40;100.00;96989.62;106751;1276;22530;-69
2023/01/18 11:45:21;;;;;;;22.30;10.10;;;;;;;5.41;100.00;96946.82;106790;1276;22659;-68
2023/01/18 11:48:07;;;;;;;21.80;10.80;;;;;;;5.41;100.00;96901.38;106843;1276;22530;-70
2023/01/18 11:50:54;;;;;;;20.90;10.00;;;;;;;5.42;100.00;96892.35;106719;1276;25344;-68
2023/01/18 11:53:31;;;;;;;22.20;12.00;;;;;;;5.42;100.00;96879.63;106826;1276;25432;-69
2023/01/18 11:56:26;;;;;;;23.20;12.00;;;;;;;5.44;100.00;96869.76;106735;1279;23818;-69
2023/01/18 11:58:56;;;;;;;23.80;11.50;;;;;;;5.45;100.00;96866.91;106686;1276;25355;-69
2023/01/18 12:01:29;;;;;;;25.90;11.90;;;;;;;5.47;100.00;96861.48;107147;1274;24219;-68
2023/01/18 12:04:02;;;;;;;26.20;12.40;;;;;;;5.49;100.00;96855.58;107278;1267;22542;-69
2023/01/18 12:06:42;;;;;;;23.90;12.70;;;;;;;5.50;100.00;96842.63;107324;1275;22540;-69
2023/01/18 12:09:26;;;;;;;23.70;10.20;;;;;;;5.49;100.00;96831.79;107314;1267;23452;-69
2023/01/18 12:12:17;;;;;;;23.30;10.40;;;;;;;5.49;100.00;96819.18;107417;1267;22521;-68
2023/01/18 12:15:05;;;;;;;19.70;9.80;;;;;;;5.48;100.00;96809.51;107416;1267;22650;-70
2023/01/18 12:18:01;;;;;;;22.60;9.50;;;;;;;5.47;100.00;96801.79;107335;1273;26564;-68
2023/01/18 12:21:18;;;;;;;19.60;10.00;;;;;;;5.46;100.00;96787.46;107262;1269;25361;-68